Time;durP1;ratioP1;P1;durP2;ratioP2;P2;SDS_P1;SDS_P2;PMS_P1;PMS_P2;Temp;Humidity;BMP_temperature;BMP_pressure;BME280_temperature;BME280_humidity;BME280_pressure;Samples;Min_cycle;Max_cycle;Signal;HPM_P1;HPM_P2
2022/01/22 00:01:05;;;;;;;12.37;3.10;;;;;;;-142.75;100.00;79496.50;5012097;28;20377;-66
2022/01/22 00:03:31;;;;;;;12.40;3.07;;;;;;;-142.75;100.00;79500.47;5002431;28;20860;-67
2022/01/22 00:05:56;;;;;;;11.98;3.50;;;;;;;-142.75;100.00;79490.59;5012238;28;20105;-68
2022/01/22 00:08:22;;;;;;;14.20;4.22;;;;;;;-142.75;100.00;79488.63;5031267;28;20063;-67
2022/01/22 00:10:50;;;;;;;14.05;3.78;;;;;;;-142.75;100.00;79492.56;5031466;28;20112;-67
2022/01/22 00:15:44;;;;;;;11.97;3.60;;;;;;;-142.75;100.00;79480.75;5031764;28;20479;-68
2022/01/22 00:18:09;;;;;;;10.80;4.40;;;;;;;-142.75;100.00;79492.56;5030453;28;20063;-68
2022/01/22 00:20:36;;;;;;;13.55;4.10;;;;;;;-142.75;100.00;79484.69;5031200;28;20056;-68
2022/01/22 00:23:05;;;;;;;14.80;5.37;;;;;;;-142.75;100.00;79468.94;5031115;28;20022;-68
2022/01/22 00:25:31;;;;;;;10.63;4.00;;;;;;;-142.75;100.00;79484.69;5020075;28;20101;-68
2022/01/22 00:27:57;;;;;;;;;;;;;;;-142.75;100.00;79472.88;5031030;28;20025;-67
2022/01/22 00:30:25;;;;;;;17.70;4.17;;;;;;;-142.75;100.00;79470.91;5030928;28;19924;-68
2022/01/22 00:32:52;;;;;;;11.10;3.73;;;;;;;-142.75;100.00;79470.91;5017100;28;20084;-67
2022/01/22 00:35:19;;;;;;;18.30;4.37;;;;;;;-142.75;100.00;79476.81;5022673;28;20395;-68
2022/01/22 00:37:47;;;;;;;12.13;4.03;;;;;;;-142.75;100.00;79470.91;5012944;28;20112;-67
2022/01/22 00:40:14;;;;;;;15.83;4.33;;;;;;;-142.75;100.00;79463.03;5025744;28;20022;-68
2022/01/22 00:42:39;;;;;;;12.23;4.00;;;;;;;-142.75;100.00;79461.06;5013956;28;20482;-68
2022/01/22 00:45:05;;;;;;;16.10;4.45;;;;;;;-142.75;100.00;79453.19;5025840;28;20033;-68
2022/01/22 00:47:30;;;;;;;13.80;4.13;;;;;;;-142.75;100.00;79472.88;5030776;28;20021;-68
2022/01/22 00:49:56;;;;;;;16.88;5.63;;;;;;;-142.75;100.00;79470.91;5015356;28;20026;-68
2022/01/22 00:52:21;;;;;;;17.65;4.43;;;;;;;-142.75;100.00;79476.81;4993146;28;20542;-68
2022/01/22 00:54:46;;;;;;;15.20;4.20;;;;;;;-142.75;100.00;79472.88;4993401;28;20029;-68
2022/01/22 00:57:11;;;;;;;10.13;3.90;;;;;;;-142.75;100.00;79476.81;5010485;28;20645;-68
2022/01/22 00:59:37;;;;;;;13.30;4.30;;;;;;;-142.75;100.00;79470.91;5030212;28;20776;-68
2022/01/22 01:02:03;;;;;;;11.73;4.50;;;;;;;-142.75;100.00;79466.97;5030109;28;20287;-68
2022/01/22 01:04:29;;;;;;;14.70;4.47;;;;;;;-142.75;100.00;79470.91;5030361;28;20029;-68
2022/01/22 01:06:54;;;;;;;14.50;4.53;;;;;;;-142.75;100.00;79474.84;5030224;28;20029;-68
2022/01/22 01:09:20;;;;;;;15.90;4.63;;;;;;;-142.75;100.00;79488.63;5030134;28;20034;-67
2022/01/22 01:11:50;;;;;;;16.88;5.03;;;;;;;-142.75;100.00;79488.63;5030333;28;20506;-68
2022/01/22 01:14:23;;;;;;;16.87;4.60;;;;;;;-142.75;100.00;79474.84;5030230;28;20564;-68
2022/01/22 01:35:37;;;;;;;12.35;3.80;;;;;;;-142.75;100.00;79459.09;5010168;28;20065;-68
2022/01/22 01:38:04;;;;;;;9.20;4.07;;;;;;;-142.75;100.00;79455.16;5010094;28;20040;-68
2022/01/22 01:40:31;;;;;;;10.87;3.73;;;;;;;-142.75;100.00;79461.06;5010228;28;20467;-68
2022/01/22 01:45:25;;;;;;;10.03;3.13;;;;;;;-142.75;100.00;79465.00;5010586;28;20495;-68
2022/01/22 01:48:00;;;;;;;13.40;3.38;;;;;;;-142.75;100.00;79447.28;5009643;28;20033;-67
2022/01/22 01:50:26;;;;;;;14.37;3.43;;;;;;;-142.75;100.00;79441.34;5009889;28;20483;-68
2022/01/22 01:53:07;;;;;;;11.73;3.30;;;;;;;-142.75;100.00;79437.41;4992219;28;20106;-68
2022/01/22 01:56:04;;;;;;;14.53;2.90;;;;;;;-142.75;100.00;79437.41;5010014;28;20490;-68
2022/01/22 01:58:21;;;;;;;13.60;2.83;;;;;;;-142.75;100.00;79437.41;5008089;28;20084;-68
2022/01/22 02:00:46;;;;;;;22.60;3.75;;;;;;;-142.75;100.00;79437.41;5009873;28;20404;-68
2022/01/22 02:03:13;;;;;;;11.00;2.42;;;;;;;-142.75;100.00;79425.59;5009942;28;20033;-68
2022/01/22 02:05:39;;;;;;;11.33;3.07;;;;;;;-142.75;100.00;79423.63;5009541;28;20439;-68
2022/01/22 02:08:05;;;;;;;7.90;2.80;;;;;;;-142.75;100.00;79429.53;5029181;28;20056;-67
2022/01/22 02:10:35;;;;;;;8.70;2.83;;;;;;;-142.75;100.00;79441.34;5029169;28;20106;-68
2022/01/22 02:23:57;;;;;;;8.57;2.23;;;;;;;-142.75;100.00;79441.34;5029247;28;20060;-68
2022/01/22 02:26:23;;;;;;;15.60;2.70;;;;;;;-142.75;100.00;79441.34;5029045;28;20033;-67
2022/01/22 02:28:51;;;;;;;15.47;2.77;;;;;;;-142.75;100.00;79425.59;5011053;28;20406;-67
2022/01/22 02:33:55;;;;;;;11.77;2.60;;;;;;;-142.75;100.00;79421.66;5029175;28;20111;-67
2022/01/22 02:36:34;;;;;;;16.50;2.30;;;;;;;-142.75;100.00;79425.59;5029255;28;20037;-68
2022/01/22 02:39:09;;;;;;;11.27;2.37;;;;;;;-142.75;100.00;79421.66;5013107;28;20377;-68
2022/01/22 02:41:36;;;;;;;8.00;2.07;;;;;;;-142.75;100.00;79421.66;5012369;28;20041;-67
2022/01/22 02:44:02;;;;;;;9.60;2.27;;;;;;;-142.75;100.00;79421.66;5003116;28;20017;-68
2022/01/22 02:46:28;;;;;;;14.13;2.05;;;;;;;-142.75;100.00;79425.59;5012264;28;20539;-67
2022/01/22 02:48:54;;;;;;;11.18;2.22;;;;;;;-142.75;100.00;79419.69;5012805;28;20095;-68
2022/01/22 02:51:24;;;;;;;13.03;2.33;;;;;;;-142.75;100.00;79427.56;5013242;28;20057;-67
2022/01/22 02:53:53;;;;;;;10.63;2.07;;;;;;;-142.75;100.00;79427.56;5013202;28;20048;-68
2022/01/22 02:56:20;;;;;;;12.13;2.47;;;;;;;-142.75;100.00;79425.59;5013191;28;20022;-67
2022/01/22 02:58:45;;;;;;;11.13;2.30;;;;;;;-142.75;100.00;79431.50;5012631;28;20029;-67
2022/01/22 03:01:15;;;;;;;11.27;2.00;;;;;;;-142.75;100.00;79425.59;5012892;28;20026;-67
2022/01/22 03:03:40;;;;;;;12.80;2.00;;;;;;;-142.75;100.00;79431.50;5012962;28;20029;-68
2022/01/22 03:06:05;;;;;;;9.32;2.10;;;;;;;-142.75;100.00;79417.72;5012769;28;20487;-68
2022/01/22 03:08:32;;;;;;;13.63;2.20;;;;;;;-142.75;100.00;79411.81;5012810;28;20022;-67
2022/01/22 03:10:57;;;;;;;11.60;1.80;;;;;;;-142.75;100.00;79423.63;5012855;28;20034;-68
2022/01/22 03:16:26;;;;;;;10.50;2.13;;;;;;;-142.75;100.00;79427.56;5013242;28;20487;-67
2022/01/22 03:29:18;;;;;;;10.30;2.20;;;;;;;-142.75;100.00;79417.72;5012162;28;20164;-68
2022/01/22 03:31:43;;;;;;;8.47;1.93;;;;;;;-142.75;100.00;79415.75;5012603;28;20026;-67
2022/01/22 03:34:09;;;;;;;8.38;2.38;;;;;;;-142.75;100.00;79431.50;5012133;28;20029;-68
2022/01/22 03:36:35;;;;;;;;;;;;;;;-142.75;100.00;79421.66;5012832;28;20479;-67
2022/01/22 03:39:05;;;;;;;11.63;1.80;;;;;;;-142.75;100.00;79419.69;5003905;28;19959;-67
2022/01/22 03:41:30;;;;;;;8.70;1.93;;;;;;;-142.75;100.00;79409.84;5015247;28;20483;-67
2022/01/22 03:43:56;;;;;;;8.90;1.92;;;;;;;-142.75;100.00;79413.78;4994804;28;20036;-67
2022/01/22 03:46:21;;;;;;;15.43;2.05;;;;;;;-142.75;100.00;79415.75;5012586;28;20391;-67
2022/01/22 03:48:47;;;;;;;11.20;2.22;;;;;;;-142.75;100.00;79413.78;5011676;28;20029;-68
2022/01/22 03:51:12;;;;;;;12.25;1.75;;;;;;;-142.75;100.00;79411.81;5011743;28;20054;-67
2022/01/22 03:53:38;;;;;;;10.10;2.13;;;;;;;-142.75;100.00;79413.78;5011639;28;20037;-68
2022/01/22 03:56:05;;;;;;;9.35;2.25;;;;;;;-142.75;100.00;79409.84;4994348;28;20033;-68
2022/01/22 03:58:33;;;;;;;10.70;2.23;;;;;;;-142.75;100.00;79409.84;5011695;28;20037;-67
2022/01/22 04:04:01;;;;;;;11.60;2.00;;;;;;;-142.75;100.00;79413.78;5002964;28;20076;-68
2022/01/22 04:08:54;;;;;;;11.55;1.90;;;;;;;-142.75;100.00;79405.91;5031338;28;20040;-67
2022/01/22 04:11:20;;;;;;;9.47;1.60;;;;;;;-142.75;100.00;79411.81;5031450;28;20048;-67
2022/01/22 04:13:48;;;;;;;10.32;1.92;;;;;;;-142.75;100.00;79413.78;5013366;28;20025;-67
2022/01/22 04:16:14;;;;;;;9.60;1.77;;;;;;;-142.75;100.00;79417.72;5031759;28;20047;-67
2022/01/22 04:26:58;;;;;;;8.17;1.73;;;;;;;-142.75;100.00;79401.97;5031117;28;20102;-68
2022/01/22 04:29:25;;;;;;;7.63;1.73;;;;;;;-142.75;100.00;79400.00;5030758;28;20030;-67
2022/01/22 04:31:54;;;;;;;7.30;1.53;;;;;;;-142.75;100.00;79390.13;5030924;28;20445;-69
2022/01/22 04:34:19;;;;;;;10.13;1.80;;;;;;;-142.75;100.00;79400.00;5030886;28;20028;-67
2022/01/22 04:36:45;;;;;;;4.03;1.25;;;;;;;-142.75;100.00;79394.09;5030735;28;20025;-68
2022/01/22 04:39:11;;;;;;;8.50;1.40;;;;;;;-142.75;100.00;79386.19;5030804;28;20024;-68
2022/01/22 04:41:37;;;;;;;10.38;1.90;;;;;;;-142.75;100.00;79390.13;5030692;28;20079;-67
2022/01/22 04:44:04;;;;;;;10.23;1.55;;;;;;;-142.75;100.00;79392.13;5019331;28;20084;-67
2022/01/22 04:55:00;;;;;;;9.47;1.90;;;;;;;-142.75;100.00;79382.25;5011274;28;20041;-67
2022/01/22 04:57:32;;;;;;;12.33;1.90;;;;;;;-142.75;100.00;79378.31;5010584;28;20029;-67
2022/01/22 04:59:57;;;;;;;10.07;2.07;;;;;;;-142.75;100.00;79380.28;4992830;28;20423;-67
2022/01/22 05:02:23;;;;;;;7.22;1.63;;;;;;;-142.75;100.00;79374.38;5010789;28;20025;-67
2022/01/22 05:04:49;;;;;;;7.47;1.58;;;;;;;-142.75;100.00;79366.50;5010777;28;20075;-67
2022/01/22 05:07:14;;;;;;;13.32;1.95;;;;;;;-142.75;100.00;79370.44;5010611;28;20026;-68
2022/01/22 05:09:40;;;;;;;11.85;1.75;;;;;;;-142.75;100.00;79364.53;5010502;28;20101;-68
2022/01/22 05:12:06;;;;;;;10.30;1.92;;;;;;;-142.75;100.00;79364.53;5010505;28;20050;-67
2022/01/22 05:14:33;;;;;;;10.47;1.77;;;;;;;-142.75;100.00;79370.44;5010558;28;20110;-67
2022/01/22 05:17:01;;;;;;;8.70;1.83;;;;;;;-142.75;100.00;79376.34;5010664;28;20025;-67
2022/01/22 05:19:37;;;;;;;9.90;1.87;;;;;;;-142.75;100.00;79370.44;4992491;28;20036;-67
2022/01/22 05:22:15;;;;;;;14.05;1.67;;;;;;;-142.75;100.00;79376.34;5010358;28;20022;-68
2022/01/22 05:24:45;;;;;;;8.97;1.43;;;;;;;-142.75;100.00;79384.22;5010316;28;20100;-67
2022/01/22 05:30:03;;;;;;;12.67;1.60;;;;;;;-142.75;100.00;79386.19;4986973;28;20066;-67
2022/01/22 05:36:55;;;;;;;9.50;1.47;;;;;;;-142.75;100.00;79392.13;4989149;28;20026;-66
2022/01/22 05:38:07;;;;;;;7.23;2.07;;;;;;;-142.75;100.00;79382.25;4990885;28;20044;-66
2022/01/22 05:40:34;;;;;;;8.40;1.65;;;;;;;-142.75;100.00;79374.38;4990964;28;20030;-66
2022/01/22 05:42:59;;;;;;;4.20;1.13;;;;;;;-142.75;100.00;79366.50;4990540;28;20038;-66
2022/01/22 05:45:24;;;;;;;6.80;1.63;;;;;;;-142.75;100.00;79370.44;4991156;28;20086;-65
2022/01/22 05:47:50;;;;;;;10.32;1.73;;;;;;;-142.75;100.00;79362.56;4990935;28;20026;-66
2022/01/22 05:50:29;;;;;;;6.60;1.40;;;;;;;-142.75;100.00;79374.38;4989850;28;20029;-66
2022/01/22 05:52:58;;;;;;;8.60;1.67;;;;;;;-142.75;100.00;79370.44;4989878;28;20420;-67
2022/01/22 05:59:35;;;;;;;8.60;1.50;;;;;;;-142.75;100.00;79364.53;4990807;28;20026;-66
2022/01/22 06:00:57;;;;;;;9.23;1.37;;;;;;;-142.75;100.00;79360.59;4990806;28;20100;-65
2022/01/22 06:03:22;;;;;;;10.05;1.70;;;;;;;-142.75;100.00;79372.41;4990878;28;20030;-65
2022/01/22 06:05:47;;;;;;;4.90;1.13;;;;;;;-142.75;100.00;79382.25;4990991;28;20476;-66
2022/01/22 06:08:16;;;;;;;6.77;1.13;;;;;;;-142.75;100.00;79370.44;4990349;28;20296;-66
2022/01/22 06:10:42;;;;;;;8.23;1.70;;;;;;;-142.75;100.00;79364.53;4991778;28;20273;-66
2022/01/22 06:13:17;;;;;;;;;;;;;;;-142.75;100.00;79378.31;5010810;28;20055;-66
2022/01/22 06:15:42;;;;;;;8.17;1.60;;;;;;;-142.75;100.00;79370.44;5014646;28;19920;-66
2022/01/22 06:18:08;;;;;;;8.13;1.58;;;;;;;-142.75;100.00;79376.34;5016800;28;20391;-66
2022/01/22 06:20:33;;;;;;;5.13;1.23;;;;;;;-142.75;100.00;79382.25;5016648;28;20049;-65
2022/01/22 06:22:59;;;;;;;5.20;1.40;;;;;;;-142.75;100.00;79382.25;5015665;28;20376;-66
2022/01/22 06:25:24;;;;;;;8.23;1.67;;;;;;;-142.75;100.00;79394.09;5016789;28;20398;-66
2022/01/22 06:27:50;;;;;;;4.95;1.35;;;;;;;-142.75;100.00;79398.03;5016344;28;20029;-65
2022/01/22 06:30:15;;;;;;;9.17;1.60;;;;;;;-142.75;100.00;79394.09;5016665;28;20105;-66
2022/01/22 06:32:40;;;;;;;12.52;1.27;;;;;;;-142.75;100.00;79384.22;5016896;28;20037;-67
2022/01/22 06:35:06;;;;;;;6.22;1.52;;;;;;;-142.75;100.00;79390.13;5016569;28;20033;-66
2022/01/22 06:37:32;;;;;;;4.55;1.42;;;;;;;-142.75;100.00;79386.19;5015333;28;20025;-66
2022/01/22 06:42:35;;;;;;;4.37;1.37;;;;;;;-142.75;100.00;79392.13;5016591;28;20033;-66
2022/01/22 06:45:02;;;;;;;14.40;2.00;;;;;;;-142.75;100.00;79394.09;5016464;28;20029;-66
2022/01/22 06:47:30;;;;;;;4.60;1.57;;;;;;;-142.75;100.00;79398.03;5017090;28;20435;-66
2022/01/22 06:49:56;;;;;;;10.50;1.80;;;;;;;-142.75;100.00;79392.13;5016182;28;20108;-63
2022/01/22 06:52:21;;;;;;;5.43;1.90;;;;;;;-142.75;100.00;79392.13;5006736;28;20030;-66
2022/01/22 06:54:47;;;;;;;7.88;2.05;;;;;;;-142.75;100.00;79401.97;4995590;28;20444;-66
2022/01/22 06:57:13;;;;;;;10.40;1.80;;;;;;;-142.75;100.00;79398.03;4996916;28;20022;-65
2022/01/22 06:59:38;;;;;;;10.43;1.77;;;;;;;-142.75;100.00;79396.06;4996495;28;20109;-66
2022/01/22 07:02:05;;;;;;;13.77;2.30;;;;;;;-142.75;100.00;79394.09;4995702;28;20054;-65
2022/01/22 07:04:31;;;;;;;11.13;2.40;;;;;;;-142.75;100.00;79398.03;4996589;28;20027;-66
2022/01/22 07:06:57;;;;;;;9.60;2.47;;;;;;;-142.75;100.00;79403.94;5012781;28;20026;-65
2022/01/22 07:09:23;;;;;;;8.83;2.40;;;;;;;-142.75;100.00;79407.88;5014406;28;20034;-66
2022/01/22 07:11:49;;;;;;;9.48;2.17;;;;;;;-142.75;100.00;79411.81;5016573;28;20428;-65
2022/01/22 07:14:15;;;;;;;8.75;2.53;;;;;;;-142.75;100.00;79423.63;5016467;28;20495;-65
2022/01/22 07:16:40;;;;;;;13.48;2.55;;;;;;;-142.75;100.00;79417.72;5015702;28;20025;-66
2022/01/22 07:19:05;;;;;;;11.25;2.95;;;;;;;-142.75;100.00;79409.84;5015878;28;20092;-66
2022/01/22 07:21:31;;;;;;;11.60;3.23;;;;;;;-142.75;100.00;79409.84;5016090;28;20034;-66
2022/01/22 07:26:29;;;;;;;8.93;2.95;;;;;;;-142.75;100.00;79417.72;5014505;28;20083;-66
2022/01/22 07:28:54;;;;;;;14.07;3.42;;;;;;;-142.75;100.00;79421.66;5012595;28;20037;-65
2022/01/22 07:31:27;;;;;;;12.45;3.28;;;;;;;-142.75;100.00;79421.66;5012993;28;20057;-66
2022/01/22 07:33:53;;;;;;;16.17;3.80;;;;;;;-142.75;100.00;79415.75;5012857;28;20040;-66
2022/01/22 07:36:18;;;;;;;11.05;3.10;;;;;;;-142.75;100.00;79415.75;5012797;28;20483;-66
2022/01/22 07:38:43;;;;;;;12.63;5.30;;;;;;;-142.75;100.00;79411.81;5011249;28;20021;-65
2022/01/22 07:41:10;;;;;;;8.95;2.78;;;;;;;-142.75;100.00;79409.84;5008632;28;20023;-64
2022/01/22 07:43:36;;;;;;;9.43;2.77;;;;;;;-142.75;100.00;79400.00;4993257;28;20057;-65
2022/01/22 07:46:02;;;;;;;14.75;3.25;;;;;;;-142.75;100.00;79405.91;4993679;28;20041;-66
2022/01/22 07:48:28;;;;;;;12.33;2.90;;;;;;;-142.75;100.00;79401.97;4992883;28;20037;-66
2022/01/22 07:50:53;;;;;;;11.67;3.00;;;;;;;-142.75;100.00;79396.06;4993211;28;20691;-63
2022/01/22 07:53:18;;;;;;;12.47;2.90;;;;;;;-142.75;100.00;79401.97;4991875;28;20340;-66
2022/01/22 07:55:46;;;;;;;13.23;3.25;;;;;;;-142.75;100.00;79401.97;4992884;28;20356;-66
2022/01/22 07:58:11;;;;;;;13.70;3.00;;;;;;;-142.75;100.00;79401.97;4992672;28;20030;-66
2022/01/22 08:00:37;;;;;;;7.55;2.63;;;;;;;-142.75;100.00;79390.13;4992903;28;20032;-67
2022/01/22 08:03:03;;;;;;;7.70;3.00;;;;;;;-142.75;100.00;79378.31;4992951;28;20030;-67
2022/01/22 08:05:29;;;;;;;9.20;2.83;;;;;;;-142.75;100.00;79380.28;4992625;28;20037;-67
2022/01/22 08:07:54;;;;;;;11.32;3.20;;;;;;;-142.75;100.00;79374.38;4992484;28;20088;-65
2022/01/22 08:10:19;;;;;;;8.10;2.80;;;;;;;-142.75;100.00;79376.34;4993505;28;20018;-65
2022/01/22 08:12:48;;;;;;;10.47;3.30;;;;;;;-142.75;100.00;79366.50;5005251;28;20395;-66
2022/01/22 08:15:15;;;;;;;13.33;3.13;;;;;;;-142.75;100.00;79350.75;5007354;28;20105;-65
2022/01/22 08:17:40;;;;;;;12.23;3.20;;;;;;;-142.75;100.00;79342.88;4993137;28;20383;-66
2022/01/22 08:20:07;;;;;;;14.30;3.63;;;;;;;-142.75;100.00;79350.75;4992139;28;20023;-65
2022/01/22 08:22:33;;;;;;;8.77;2.77;;;;;;;-142.75;100.00;79348.78;5006700;28;20029;-66
2022/01/22 08:25:00;;;;;;;8.07;2.78;;;;;;;-142.75;100.00;79354.69;5012350;28;20380;-64
2022/01/22 08:29:55;;;;;;;13.33;3.10;;;;;;;-142.75;100.00;79358.63;5011733;28;20065;-64
2022/01/22 08:32:56;;;;;;;9.20;3.07;;;;;;;-142.75;100.00;79372.41;5011644;28;20030;-67
2022/01/22 08:37:58;;;;;;;14.70;3.33;;;;;;;-142.75;100.00;79374.38;5011366;28;20052;-66
2022/01/22 08:40:24;;;;;;;6.43;2.67;;;;;;;-142.75;100.00;79376.34;5011658;28;20483;-66
2022/01/22 08:42:50;;;;;;;10.83;3.20;;;;;;;-142.75;100.00;79384.22;5011779;28;20312;-67
2022/01/22 08:45:15;;;;;;;;;;;;;;;-142.75;100.00;79390.13;5004947;28;20281;-67
2022/01/22 08:47:40;;;;;;;12.23;3.63;;;;;;;-142.75;100.00;79380.28;4991390;28;19914;-66
2022/01/22 08:50:07;;;;;;;10.57;3.53;;;;;;;-142.75;100.00;79386.19;4991626;28;20420;-66
2022/01/22 08:52:35;;;;;;;8.40;3.03;;;;;;;-142.75;100.00;79386.19;4994081;28;20080;-67
2022/01/22 08:55:01;;;;;;;7.43;3.43;;;;;;;-142.75;100.00;79370.44;5011465;28;20093;-67
2022/01/22 08:57:27;;;;;;;12.53;3.57;;;;;;;-142.75;100.00;79374.38;5009938;28;20120;-66
2022/01/22 08:59:52;;;;;;;9.57;3.72;;;;;;;-142.75;100.00;79370.44;5011283;28;20503;-65
2022/01/22 09:02:19;;;;;;;10.07;3.77;;;;;;;-142.75;100.00;79358.63;5011518;28;20133;-66
2022/01/22 09:04:45;;;;;;;14.98;3.55;;;;;;;-142.75;100.00;79374.38;5011238;28;20673;-66
2022/01/22 09:07:10;;;;;;;12.23;3.50;;;;;;;-142.75;100.00;79384.22;5006780;28;20033;-66
2022/01/22 09:09:36;;;;;;;12.98;4.13;;;;;;;-142.75;100.00;79390.13;4990342;28;20030;-66
2022/01/22 09:12:04;;;;;;;14.00;4.68;;;;;;;-142.75;100.00;79382.25;4991777;28;20080;-67
2022/01/22 09:14:30;;;;;;;10.07;4.50;;;;;;;-142.75;100.00;79378.31;4991467;28;20030;-66
2022/01/22 09:16:58;;;;;;;13.25;4.63;;;;;;;-142.75;100.00;79382.25;4991930;28;20211;-66
2022/01/22 09:19:27;;;;;;;9.87;3.40;;;;;;;-142.75;100.00;79376.34;4989824;28;20022;-67
2022/01/22 09:21:52;;;;;;;11.53;4.13;;;;;;;-142.75;100.00;79376.34;4991298;28;20022;-66
2022/01/22 09:24:17;;;;;;;14.57;4.23;;;;;;;-142.75;100.00;79378.31;4991495;28;20110;-67
2022/01/22 09:26:44;;;;;;;17.20;4.68;;;;;;;-142.75;100.00;79378.31;4989989;28;20620;-67
2022/01/22 09:29:09;;;;;;;10.93;4.03;;;;;;;-142.75;100.00;79378.31;4990299;28;20026;-66
2022/01/22 09:31:35;;;;;;;9.98;3.97;;;;;;;-142.75;100.00;79372.41;4991420;28;20030;-65
2022/01/22 09:34:01;;;;;;;12.80;4.03;;;;;;;-142.75;100.00;79394.09;4999714;28;20399;-66
2022/01/22 09:36:29;;;;;;;12.27;4.47;;;;;;;-142.75;100.00;79386.19;5010996;28;20079;-66
2022/01/22 09:38:56;;;;;;;13.40;4.40;;;;;;;-142.75;100.00;79382.25;5010231;28;20037;-67
2022/01/22 09:41:23;;;;;;;13.00;5.10;;;;;;;-142.75;100.00;79370.44;5010520;28;20407;-65
2022/01/22 09:43:49;;;;;;;14.33;4.17;;;;;;;-142.75;100.00;79378.31;5010808;28;20116;-66
2022/01/22 09:46:15;;;;;;;;;;;;;;;-142.75;100.00;79392.13;5011597;28;20387;-67
2022/01/22 09:48:45;;;;;;;10.77;4.13;;;;;;;-142.75;100.00;79394.09;5010229;28;19913;-70
2022/01/22 09:51:11;;;;;;;12.27;4.73;;;;;;;-142.75;100.00;79396.06;5010113;28;20053;-65
2022/01/22 09:53:39;;;;;;;12.90;4.50;;;;;;;-142.75;100.00;79403.94;5010332;28;20034;-66
2022/01/22 09:56:05;;;;;;;10.40;4.43;;;;;;;-142.75;100.00;79401.97;5010501;28;20052;-67
2022/01/22 09:58:31;;;;;;;13.23;4.90;;;;;;;-142.75;100.00;79394.09;5010013;28;21690;-69
2022/01/22 10:01:26;;;;;;;10.93;4.57;;;;;;;-142.75;100.00;79411.81;5010545;28;20030;-66
2022/01/22 10:03:56;;;;;;;12.47;5.00;;;;;;;-142.75;100.00;79413.78;5000984;28;20037;-67
2022/01/22 10:06:25;;;;;;;8.37;5.07;;;;;;;-142.75;100.00;79425.59;4990769;28;20022;-67
2022/01/22 10:08:55;;;;;;;15.20;5.00;;;;;;;-142.75;100.00;79421.66;4990240;28;20061;-66
2022/01/22 10:11:27;;;;;;;12.37;5.00;;;;;;;-142.75;100.00;79423.63;4989400;28;20061;-67
2022/01/22 10:13:58;;;;;;;12.33;5.00;;;;;;;-142.75;100.00;79425.59;4990909;28;20033;-65
2022/01/22 10:16:24;;;;;;;18.13;5.33;;;;;;;-142.75;100.00;79425.59;4990511;28;20036;-67
2022/01/22 10:19:18;;;;;;;16.83;5.20;;;;;;;-142.75;100.00;79411.81;4990337;28;20018;-65
2022/01/22 10:21:57;;;;;;;15.37;5.70;;;;;;;-142.75;100.00;79409.84;4989510;28;20030;-66
2022/01/22 10:24:31;;;;;;;11.43;5.17;;;;;;;-142.75;100.00;79407.88;4990509;28;20042;-67
2022/01/22 10:29:51;;;;;;;14.33;5.53;;;;;;;-142.75;100.00;79398.03;4990293;28;20513;-67
2022/01/22 10:32:19;;;;;;;13.33;5.57;;;;;;;-142.75;100.00;79401.97;4990655;28;20659;-65
2022/01/22 10:34:44;;;;;;;15.07;5.87;;;;;;;-142.75;100.00;79398.03;4989493;28;20057;-67
2022/01/22 10:37:09;;;;;;;12.30;5.63;;;;;;;-142.75;100.00;79394.09;4989280;28;20026;-66
2022/01/22 10:39:34;;;;;;;15.23;6.45;;;;;;;-142.75;100.00;79384.22;4989964;28;20050;-67
2022/01/22 10:42:00;;;;;;;13.73;6.00;;;;;;;-142.75;100.00;79378.31;4989188;28;20062;-67
2022/01/22 10:44:46;;;;;;;15.82;5.53;;;;;;;-142.75;100.00;79372.41;4990596;28;20347;-66
2022/01/22 10:47:22;;;;;;;19.20;5.25;;;;;;;-142.75;100.00;79364.53;4990804;28;20027;-67
2022/01/22 10:49:48;;;;;;;12.30;5.30;;;;;;;-142.75;100.00;79370.44;4989016;28;20027;-67
2022/01/22 10:52:13;;;;;;;14.35;6.00;;;;;;;-142.75;100.00;79374.38;4990456;28;20037;-67
2022/01/22 10:54:39;;;;;;;14.75;5.63;;;;;;;-142.75;100.00;79382.25;4990473;28;20113;-66
2022/01/22 10:57:19;;;;;;;12.30;5.88;;;;;;;-142.75;100.00;79370.44;4990239;28;20404;-67
2022/01/22 10:59:50;;;;;;;14.17;5.63;;;;;;;-142.75;100.00;79360.59;4990217;28;20037;-66
2022/01/22 11:02:19;;;;;;;13.63;5.20;;;;;;;-142.75;100.00;79358.63;4992962;28;20031;-67
2022/01/22 11:04:46;;;;;;;17.93;5.97;;;;;;;-142.75;100.00;79368.47;4993865;28;20037;-67
2022/01/22 11:07:16;;;;;;;9.20;5.67;;;;;;;-142.75;100.00;79358.63;4992788;28;20034;-67
2022/01/22 11:09:43;;;;;;;11.90;4.47;;;;;;;-142.75;100.00;79356.66;4993779;28;20022;-67
2022/01/22 11:12:09;;;;;;;12.93;5.73;;;;;;;-142.75;100.00;79362.56;5007160;28;20033;-66
2022/01/22 11:14:37;;;;;;;9.70;5.40;;;;;;;-142.75;100.00;79358.63;5012595;28;20431;-66
2022/01/22 11:17:04;;;;;;;8.87;4.90;;;;;;;-142.75;100.00;79362.56;5011811;28;20403;-65
2022/01/22 11:19:33;;;;;;;;;;;;;;;-142.75;100.00;79370.44;5011495;28;20503;-67
2022/01/22 11:22:08;;;;;;;10.63;4.53;;;;;;;-142.75;100.00;79354.69;5012675;28;19960;-66
2022/01/22 11:24:37;;;;;;;12.47;5.03;;;;;;;-142.75;100.00;79333.00;5012793;28;20387;-67
2022/01/22 11:27:05;;;;;;;13.67;5.77;;;;;;;-142.75;100.00;79340.91;5012189;28;20022;-67
2022/01/22 11:29:45;;;;;;;10.30;5.07;;;;;;;-142.75;100.00;79354.69;5033417;22;20482;-68
2022/01/22 11:32:12;;;;;;;12.43;5.80;;;;;;;-142.75;100.00;79370.44;5031904;28;20417;-68
2022/01/22 11:34:40;;;;;;;14.57;5.67;;;;;;;-142.75;100.00;79360.59;5052279;28;20033;-67
2022/01/22 11:37:21;;;;;;;10.33;5.73;;;;;;;-142.75;100.00;79358.63;5052345;28;20025;-68
2022/01/22 11:39:46;;;;;;;15.77;5.87;;;;;;;-142.75;100.00;79350.75;5051835;28;20051;-68
2022/01/22 11:42:11;;;;;;;16.40;6.15;;;;;;;-142.75;100.00;79364.53;5034367;28;20486;-68
2022/01/22 11:44:50;;;;;;;18.02;7.38;;;;;;;-142.75;100.00;79380.28;5051830;28;20021;-68
2022/01/22 11:47:20;;;;;;;11.77;6.90;;;;;;;-142.75;100.00;79384.22;5052295;28;20055;-68
2022/01/22 11:50:06;;;;;;;15.30;7.50;;;;;;;-142.75;100.00;79380.28;5051331;28;20024;-68
2022/01/22 11:52:35;;;;;;;17.10;7.82;;;;;;;-142.75;100.00;79382.25;5044160;28;20033;-67
2022/01/22 11:55:10;;;;;;;18.92;7.75;;;;;;;-142.75;100.00;79390.13;5031752;28;20033;-68
2022/01/22 11:57:36;;;;;;;20.35;7.78;;;;;;;-142.75;100.00;79386.19;5031474;28;20033;-68
2022/01/22 12:00:26;;;;;;;19.58;7.85;;;;;;;-142.75;100.00;79376.34;5031318;28;20039;-68
2022/01/22 12:03:03;;;;;;;12.53;8.00;;;;;;;-142.75;100.00;79362.56;5031564;28;20032;-68
2022/01/22 12:05:29;;;;;;;15.00;8.10;;;;;;;-142.75;100.00;79374.38;5031481;28;20021;-68
2022/01/22 12:07:59;;;;;;;13.32;7.72;;;;;;;-142.75;100.00;79366.50;5017434;28;20105;-67
2022/01/22 12:10:39;;;;;;;19.33;8.30;;;;;;;-142.75;100.00;79370.44;5051194;28;20021;-68
2022/01/22 12:16:12;;;;;;;19.33;8.43;;;;;;;-142.75;100.00;79378.31;5031674;28;20044;-68
2022/01/22 12:18:45;;;;;;;15.73;9.57;;;;;;;-142.75;100.00;79382.25;5031317;28;20688;-68
2022/01/22 12:23:56;;;;;;;16.23;9.03;;;;;;;-142.75;100.00;79386.19;5031121;28;20033;-68
2022/01/22 12:26:45;;;;;;;16.77;10.30;;;;;;;-142.75;100.00;79392.13;5031071;28;20040;-67
2022/01/22 12:29:35;;;;;;;17.93;10.33;;;;;;;-142.75;100.00;79398.03;5030199;28;20034;-69
2022/01/22 12:32:16;;;;;;;19.07;10.60;;;;;;;-142.75;100.00;79392.13;5031153;28;20487;-70
2022/01/22 12:34:54;;;;;;;18.13;9.60;;;;;;;-142.75;100.00;79398.03;5013350;28;20052;-70
2022/01/22 12:37:21;;;;;;;24.83;10.20;;;;;;;-142.75;100.00;79398.03;5012900;28;20032;-67
2022/01/22 12:39:51;;;;;;;13.67;10.00;;;;;;;-142.75;100.00;79401.97;5028285;28;20033;-68
2022/01/22 12:42:35;;;;;;;14.00;9.40;;;;;;;-142.75;100.00;79390.13;5030447;28;20021;-68
2022/01/22 12:45:05;;;;;;;19.53;10.70;;;;;;;-142.75;100.00;79394.09;5030370;28;20722;-68
2022/01/22 12:47:30;;;;;;;20.10;10.80;;;;;;;-142.75;100.00;79398.03;5030498;28;20033;-68
2022/01/22 12:49:59;;;;;;;16.88;10.38;;;;;;;-142.75;100.00;79409.84;5029628;28;20399;-68